sensor_id;sensor_type;location;lat;lon;timestamp;P1;durP1;ratioP1;P2;durP2;ratioP2
33987;SDS011;37428;53.580;-1.666;2023-12-22T00:00:58;45.00;;;7.22;;
33987;SDS011;37428;53.580;-1.666;2023-12-22T00:04:02;60.00;;;8.75;;
33987;SDS011;37428;53.580;-1.666;2023-12-22T00:07:06;46.17;;;7.90;;
33987;SDS011;37428;53.580;-1.666;2023-12-22T00:10:08;44.53;;;7.50;;
33987;SDS011;37428;53.580;-1.666;2023-12-22T00:13:10;35.78;;;6.88;;
33987;SDS011;37428;53.580;-1.666;2023-12-22T00:16:13;43.58;;;8.45;;
33987;SDS011;37428;53.580;-1.666;2023-12-22T00:19:16;38.28;;;7.82;;
33987;SDS011;37428;53.580;-1.666;2023-12-22T00:22:19;44.13;;;7.80;;
33987;SDS011;37428;53.580;-1.666;2023-12-22T00:25:21;33.72;;;7.18;;
33987;SDS011;37428;53.580;-1.666;2023-12-22T00:28:23;42.83;;;8.00;;
33987;SDS011;37428;53.580;-1.666;2023-12-22T00:31:25;38.03;;;5.25;;
33987;SDS011;37428;53.580;-1.666;2023-12-22T00:34:29;26.40;;;5.28;;
33987;SDS011;37428;53.580;-1.666;2023-12-22T00:37:31;37.28;;;6.03;;
33987;SDS011;37428;53.580;-1.666;2023-12-22T00:40:33;47.22;;;7.03;;
33987;SDS011;37428;53.580;-1.666;2023-12-22T00:43:35;48.47;;;6.70;;
33987;SDS011;37428;53.580;-1.666;2023-12-22T00:46:38;28.88;;;6.38;;
33987;SDS011;37428;53.580;-1.666;2023-12-22T00:49:41;35.08;;;5.05;;
33987;SDS011;37428;53.580;-1.666;2023-12-22T00:52:44;31.55;;;5.68;;
33987;SDS011;37428;53.580;-1.666;2023-12-22T00:55:46;35.30;;;5.32;;
33987;SDS011;37428;53.580;-1.666;2023-12-22T00:58:48;29.92;;;5.60;;
33987;SDS011;37428;53.580;-1.666;2023-12-22T01:01:50;40.88;;;6.82;;
33987;SDS011;37428;53.580;-1.666;2023-12-22T01:04:54;29.58;;;4.63;;
33987;SDS011;37428;53.580;-1.666;2023-12-22T01:07:56;24.95;;;5.90;;
33987;SDS011;37428;53.580;-1.666;2023-12-22T01:10:58;22.98;;;3.83;;
33987;SDS011;37428;53.580;-1.666;2023-12-22T01:14:01;23.83;;;5.20;;
33987;SDS011;37428;53.580;-1.666;2023-12-22T01:17:03;32.22;;;5.50;;
33987;SDS011;37428;53.580;-1.666;2023-12-22T01:20:07;29.38;;;5.97;;
33987;SDS011;37428;53.580;-1.666;2023-12-22T01:23:09;28.15;;;4.50;;
33987;SDS011;37428;53.580;-1.666;2023-12-22T01:26:20;31.19;;;4.60;;
33987;SDS011;37428;53.580;-1.666;2023-12-22T01:29:22;21.35;;;5.22;;
33987;SDS011;37428;53.580;-1.666;2023-12-22T01:32:25;27.73;;;4.43;;
33987;SDS011;37428;53.580;-1.666;2023-12-22T01:35:34;18.17;;;3.42;;
33987;SDS011;37428;53.580;-1.666;2023-12-22T01:38:36;30.05;;;4.35;;
33987;SDS011;37428;53.580;-1.666;2023-12-22T01:41:38;23.75;;;4.30;;
33987;SDS011;37428;53.580;-1.666;2023-12-22T01:44:41;16.55;;;3.58;;
33987;SDS011;37428;53.580;-1.666;2023-12-22T01:47:43;16.15;;;3.58;;
33987;SDS011;37428;53.580;-1.666;2023-12-22T01:50:49;13.55;;;2.17;;
33987;SDS011;37428;53.580;-1.666;2023-12-22T01:53:52;14.95;;;2.80;;
33987;SDS011;37428;53.580;-1.666;2023-12-22T01:59:57;16.15;;;2.15;;
33987;SDS011;37428;53.580;-1.666;2023-12-22T02:02:59;11.40;;;2.72;;
33987;SDS011;37428;53.580;-1.666;2023-12-22T02:06:03;12.48;;;2.38;;
33987;SDS011;37428;53.580;-1.666;2023-12-22T02:09:06;12.82;;;3.67;;
33987;SDS011;37428;53.580;-1.666;2023-12-22T02:12:09;7.30;;;1.90;;
33987;SDS011;37428;53.580;-1.666;2023-12-22T02:15:11;7.85;;;2.22;;
33987;SDS011;37428;53.580;-1.666;2023-12-22T02:18:15;8.70;;;1.90;;
33987;SDS011;37428;53.580;-1.666;2023-12-22T02:21:23;8.07;;;1.58;;
33987;SDS011;37428;53.580;-1.666;2023-12-22T02:24:27;6.05;;;1.10;;
33987;SDS011;37428;53.580;-1.666;2023-12-22T02:27:33;12.73;;;1.70;;
33987;SDS011;37428;53.580;-1.666;2023-12-22T02:30:43;6.07;;;1.75;;
33987;SDS011;37428;53.580;-1.666;2023-12-22T02:33:54;5.25;;;1.67;;
33987;SDS011;37428;53.580;-1.666;2023-12-22T02:36:59;9.57;;;1.20;;
33987;SDS011;37428;53.580;-1.666;2023-12-22T02:40:03;7.72;;;0.98;;
33987;SDS011;37428;53.580;-1.666;2023-12-22T02:43:06;8.27;;;1.35;;
33987;SDS011;37428;53.580;-1.666;2023-12-22T02:46:12;4.97;;;1.02;;
33987;SDS011;37428;53.580;-1.666;2023-12-22T02:49:15;6.03;;;1.38;;
33987;SDS011;37428;53.580;-1.666;2023-12-22T02:52:20;2.45;;;0.68;;
33987;SDS011;37428;53.580;-1.666;2023-12-22T02:55:23;9.23;;;0.70;;
33987;SDS011;37428;53.580;-1.666;2023-12-22T02:58:26;5.72;;;0.50;;
33987;SDS011;37428;53.580;-1.666;2023-12-22T03:01:28;4.45;;;0.95;;
33987;SDS011;37428;53.580;-1.666;2023-12-22T03:04:30;6.05;;;0.73;;
33987;SDS011;37428;53.580;-1.666;2023-12-22T03:07:32;3.95;;;0.73;;
33987;SDS011;37428;53.580;-1.666;2023-12-22T03:10:36;4.47;;;1.08;;
33987;SDS011;37428;53.580;-1.666;2023-12-22T03:13:38;6.13;;;1.13;;
33987;SDS011;37428;53.580;-1.666;2023-12-22T03:16:40;5.22;;;0.70;;
33987;SDS011;37428;53.580;-1.666;2023-12-22T03:19:42;7.10;;;1.55;;
33987;SDS011;37428;53.580;-1.666;2023-12-22T03:22:44;6.32;;;0.80;;
33987;SDS011;37428;53.580;-1.666;2023-12-22T03:25:48;2.58;;;0.65;;
33987;SDS011;37428;53.580;-1.666;2023-12-22T03:28:50;0.95;;;0.20;;
33987;SDS011;37428;53.580;-1.666;2023-12-22T03:31:53;0.93;;;0.40;;
33987;SDS011;37428;53.580;-1.666;2023-12-22T03:34:55;3.67;;;0.70;;
33987;SDS011;37428;53.580;-1.666;2023-12-22T03:37:57;0.82;;;0.28;;
33987;SDS011;37428;53.580;-1.666;2023-12-22T03:41:01;0.77;;;0.38;;
33987;SDS011;37428;53.580;-1.666;2023-12-22T03:44:03;2.38;;;0.57;;
33987;SDS011;37428;53.580;-1.666;2023-12-22T03:47:05;1.85;;;0.45;;
33987;SDS011;37428;53.580;-1.666;2023-12-22T03:50:08;2.80;;;0.30;;
33987;SDS011;37428;53.580;-1.666;2023-12-22T03:53:10;2.50;;;0.20;;
33987;SDS011;37428;53.580;-1.666;2023-12-22T03:56:14;0.68;;;0.17;;
33987;SDS011;37428;53.580;-1.666;2023-12-22T03:59:16;0.45;;;0.10;;
33987;SDS011;37428;53.580;-1.666;2023-12-22T04:02:19;0.95;;;0.20;;
33987;SDS011;37428;53.580;-1.666;2023-12-22T04:05:21;1.10;;;0.20;;
33987;SDS011;37428;53.580;-1.666;2023-12-22T04:08:23;2.03;;;0.28;;
33987;SDS011;37428;53.580;-1.666;2023-12-22T04:11:27;0.30;;;0.20;;
33987;SDS011;37428;53.580;-1.666;2023-12-22T04:14:29;3.25;;;0.40;;
33987;SDS011;37428;53.580;-1.666;2023-12-22T04:17:31;1.17;;;0.10;;
33987;SDS011;37428;53.580;-1.666;2023-12-22T04:20:34;2.28;;;0.30;;
33987;SDS011;37428;53.580;-1.666;2023-12-22T04:23:36;4.15;;;0.93;;
33987;SDS011;37428;53.580;-1.666;2023-12-22T04:26:39;1.73;;;0.30;;
33987;SDS011;37428;53.580;-1.666;2023-12-22T04:29:42;1.83;;;0.93;;
33987;SDS011;37428;53.580;-1.666;2023-12-22T04:32:44;2.95;;;0.20;;
33987;SDS011;37428;53.580;-1.666;2023-12-22T04:35:46;1.40;;;0.30;;
33987;SDS011;37428;53.580;-1.666;2023-12-22T04:38:48;2.20;;;0.60;;
33987;SDS011;37428;53.580;-1.666;2023-12-22T04:41:52;2.55;;;0.57;;
33987;SDS011;37428;53.580;-1.666;2023-12-22T04:44:55;6.30;;;0.50;;
33987;SDS011;37428;53.580;-1.666;2023-12-22T04:47:57;1.30;;;0.30;;
33987;SDS011;37428;53.580;-1.666;2023-12-22T04:50:59;1.70;;;0.50;;
33987;SDS011;37428;53.580;-1.666;2023-12-22T04:54:02;5.88;;;0.73;;
33987;SDS011;37428;53.580;-1.666;2023-12-22T04:57:05;2.15;;;0.35;;
33987;SDS011;37428;53.580;-1.666;2023-12-22T05:00:08;2.15;;;0.68;;
33987;SDS011;37428;53.580;-1.666;2023-12-22T05:03:11;3.60;;;0.63;;
33987;SDS011;37428;53.580;-1.666;2023-12-22T05:06:13;5.47;;;0.47;;
33987;SDS011;37428;53.580;-1.666;2023-12-22T05:09:15;5.75;;;2.35;;
33987;SDS011;37428;53.580;-1.666;2023-12-22T05:12:19;6.30;;;5.00;;
33987;SDS011;37428;53.580;-1.666;2023-12-22T05:15:21;5.03;;;1.88;;
33987;SDS011;37428;53.580;-1.666;2023-12-22T05:18:23;2.42;;;0.30;;
33987;SDS011;37428;53.580;-1.666;2023-12-22T05:21:25;1.65;;;0.50;;
33987;SDS011;37428;53.580;-1.666;2023-12-22T05:24:28;3.20;;;0.45;;
33987;SDS011;37428;53.580;-1.666;2023-12-22T05:27:32;4.03;;;0.82;;
33987;SDS011;37428;53.580;-1.666;2023-12-22T05:30:34;6.65;;;1.08;;
33987;SDS011;37428;53.580;-1.666;2023-12-22T05:33:36;2.78;;;0.40;;
33987;SDS011;37428;53.580;-1.666;2023-12-22T05:36:38;2.65;;;0.60;;
33987;SDS011;37428;53.580;-1.666;2023-12-22T05:39:41;4.55;;;0.75;;
33987;SDS011;37428;53.580;-1.666;2023-12-22T05:42:45;3.10;;;0.50;;
33987;SDS011;37428;53.580;-1.666;2023-12-22T05:45:47;4.60;;;0.77;;
33987;SDS011;37428;53.580;-1.666;2023-12-22T05:48:50;4.35;;;0.70;;
33987;SDS011;37428;53.580;-1.666;2023-12-22T05:51:52;1.02;;;0.40;;
33987;SDS011;37428;53.580;-1.666;2023-12-22T05:54:54;0.98;;;0.35;;
33987;SDS011;37428;53.580;-1.666;2023-12-22T05:57:58;3.20;;;0.63;;
33987;SDS011;37428;53.580;-1.666;2023-12-22T06:01:00;3.15;;;0.17;;
33987;SDS011;37428;53.580;-1.666;2023-12-22T06:07:07;1.02;;;0.20;;
33987;SDS011;37428;53.580;-1.666;2023-12-22T06:10:09;1.58;;;0.30;;
33987;SDS011;37428;53.580;-1.666;2023-12-22T06:13:13;0.98;;;0.20;;
33987;SDS011;37428;53.580;-1.666;2023-12-22T06:16:15;1.67;;;0.63;;
33987;SDS011;37428;53.580;-1.666;2023-12-22T06:19:18;3.00;;;0.30;;
33987;SDS011;37428;53.580;-1.666;2023-12-22T06:22:22;4.68;;;0.40;;
33987;SDS011;37428;53.580;-1.666;2023-12-22T06:25:24;2.45;;;0.57;;
33987;SDS011;37428;53.580;-1.666;2023-12-22T06:28:28;4.97;;;0.70;;
33987;SDS011;37428;53.580;-1.666;2023-12-22T06:31:31;1.60;;;0.60;;
33987;SDS011;37428;53.580;-1.666;2023-12-22T06:34:33;3.33;;;0.45;;
33987;SDS011;37428;53.580;-1.666;2023-12-22T06:37:35;5.10;;;0.52;;
33987;SDS011;37428;53.580;-1.666;2023-12-22T06:40:37;5.32;;;2.08;;
33987;SDS011;37428;53.580;-1.666;2023-12-22T06:43:41;2.58;;;0.40;;
33987;SDS011;37428;53.580;-1.666;2023-12-22T06:46:43;3.70;;;0.60;;
33987;SDS011;37428;53.580;-1.666;2023-12-22T06:49:46;5.03;;;0.82;;
33987;SDS011;37428;53.580;-1.666;2023-12-22T06:55:51;6.90;;;0.93;;
33987;SDS011;37428;53.580;-1.666;2023-12-22T06:58:55;6.60;;;0.70;;
33987;SDS011;37428;53.580;-1.666;2023-12-22T07:01:59;5.22;;;1.13;;
33987;SDS011;37428;53.580;-1.666;2023-12-22T07:05:02;7.22;;;0.95;;
33987;SDS011;37428;53.580;-1.666;2023-12-22T07:08:06;5.03;;;3.08;;
33987;SDS011;37428;53.580;-1.666;2023-12-22T07:11:08;3.55;;;0.77;;
33987;SDS011;37428;53.580;-1.666;2023-12-22T07:14:12;5.00;;;0.52;;
33987;SDS011;37428;53.580;-1.666;2023-12-22T07:17:15;9.27;;;1.40;;
33987;SDS011;37428;53.580;-1.666;2023-12-22T07:20:17;5.93;;;0.50;;
33987;SDS011;37428;53.580;-1.666;2023-12-22T07:23:20;3.08;;;0.60;;
33987;SDS011;37428;53.580;-1.666;2023-12-22T07:26:22;1.55;;;0.30;;
33987;SDS011;37428;53.580;-1.666;2023-12-22T07:29:28;0.70;;;0.10;;
33987;SDS011;37428;53.580;-1.666;2023-12-22T07:32:30;1.35;;;0.20;;
33987;SDS011;37428;53.580;-1.666;2023-12-22T07:35:33;1.30;;;0.20;;
33987;SDS011;37428;53.580;-1.666;2023-12-22T07:38:35;4.20;;;0.30;;
33987;SDS011;37428;53.580;-1.666;2023-12-22T07:41:39;0.75;;;0.50;;
33987;SDS011;37428;53.580;-1.666;2023-12-22T07:44:43;1.70;;;0.20;;
33987;SDS011;37428;53.580;-1.666;2023-12-22T07:47:45;1.58;;;0.40;;
33987;SDS011;37428;53.580;-1.666;2023-12-22T07:50:47;4.00;;;1.00;;
33987;SDS011;37428;53.580;-1.666;2023-12-22T07:53:49;6.45;;;1.25;;
33987;SDS011;37428;53.580;-1.666;2023-12-22T07:56:52;7.63;;;3.63;;
33987;SDS011;37428;53.580;-1.666;2023-12-22T07:59:55;6.43;;;0.90;;
33987;SDS011;37428;53.580;-1.666;2023-12-22T08:02:57;6.32;;;1.00;;
33987;SDS011;37428;53.580;-1.666;2023-12-22T08:09:02;5.68;;;0.93;;
33987;SDS011;37428;53.580;-1.666;2023-12-22T08:12:04;5.93;;;2.10;;
33987;SDS011;37428;53.580;-1.666;2023-12-22T08:15:09;7.88;;;1.38;;
33987;SDS011;37428;53.580;-1.666;2023-12-22T08:18:12;5.38;;;1.63;;
33987;SDS011;37428;53.580;-1.666;2023-12-22T08:21:14;7.32;;;1.02;;
33987;SDS011;37428;53.580;-1.666;2023-12-22T08:24:17;9.10;;;1.27;;
33987;SDS011;37428;53.580;-1.666;2023-12-22T08:27:19;5.40;;;1.05;;
33987;SDS011;37428;53.580;-1.666;2023-12-22T08:30:23;14.70;;;2.05;;
33987;SDS011;37428;53.580;-1.666;2023-12-22T08:33:25;12.32;;;1.90;;
33987;SDS011;37428;53.580;-1.666;2023-12-22T08:36:27;16.35;;;2.65;;
33987;SDS011;37428;53.580;-1.666;2023-12-22T08:39:30;14.75;;;2.88;;
33987;SDS011;37428;53.580;-1.666;2023-12-22T08:42:32;14.93;;;2.80;;
33987;SDS011;37428;53.580;-1.666;2023-12-22T08:45:36;9.07;;;1.45;;
33987;SDS011;37428;53.580;-1.666;2023-12-22T08:48:38;13.88;;;2.00;;
33987;SDS011;37428;53.580;-1.666;2023-12-22T08:51:40;7.07;;;1.35;;
33987;SDS011;37428;53.580;-1.666;2023-12-22T08:54:43;11.30;;;1.55;;
33987;SDS011;37428;53.580;-1.666;2023-12-22T08:57:45;14.50;;;1.70;;
33987;SDS011;37428;53.580;-1.666;2023-12-22T09:00:49;13.38;;;2.33;;
33987;SDS011;37428;53.580;-1.666;2023-12-22T09:03:51;8.20;;;1.23;;
33987;SDS011;37428;53.580;-1.666;2023-12-22T09:06:53;9.55;;;2.75;;
33987;SDS011;37428;53.580;-1.666;2023-12-22T09:09:56;11.00;;;2.75;;
33987;SDS011;37428;53.580;-1.666;2023-12-22T09:12:58;9.40;;;2.13;;
33987;SDS011;37428;53.580;-1.666;2023-12-22T09:16:02;9.63;;;1.63;;
33987;SDS011;37428;53.580;-1.666;2023-12-22T09:19:05;12.63;;;2.00;;
33987;SDS011;37428;53.580;-1.666;2023-12-22T09:22:08;11.90;;;1.75;;
33987;SDS011;37428;53.580;-1.666;2023-12-22T09:25:10;14.63;;;1.70;;
33987;SDS011;37428;53.580;-1.666;2023-12-22T09:28:12;6.93;;;1.52;;
33987;SDS011;37428;53.580;-1.666;2023-12-22T09:31:16;8.23;;;3.00;;
33987;SDS011;37428;53.580;-1.666;2023-12-22T09:34:18;18.50;;;2.92;;
33987;SDS011;37428;53.580;-1.666;2023-12-22T09:37:20;18.58;;;3.50;;
33987;SDS011;37428;53.580;-1.666;2023-12-22T09:40:23;8.50;;;1.73;;
33987;SDS011;37428;53.580;-1.666;2023-12-22T09:43:26;10.07;;;2.20;;
33987;SDS011;37428;53.580;-1.666;2023-12-22T09:49:32;17.70;;;4.32;;
33987;SDS011;37428;53.580;-1.666;2023-12-22T09:52:35;13.35;;;2.08;;
33987;SDS011;37428;53.580;-1.666;2023-12-22T09:55:42;14.93;;;2.05;;
33987;SDS011;37428;53.580;-1.666;2023-12-22T09:58:46;13.10;;;2.80;;
33987;SDS011;37428;53.580;-1.666;2023-12-22T10:01:51;10.20;;;1.35;;
33987;SDS011;37428;53.580;-1.666;2023-12-22T10:04:56;24.90;;;15.57;;
33987;SDS011;37428;53.580;-1.666;2023-12-22T10:07:58;14.35;;;2.67;;
33987;SDS011;37428;53.580;-1.666;2023-12-22T10:11:02;12.88;;;4.70;;
33987;SDS011;37428;53.580;-1.666;2023-12-22T10:14:05;17.55;;;3.50;;
33987;SDS011;37428;53.580;-1.666;2023-12-22T10:17:10;15.35;;;2.75;;
33987;SDS011;37428;53.580;-1.666;2023-12-22T10:20:13;10.38;;;1.83;;
33987;SDS011;37428;53.580;-1.666;2023-12-22T10:23:16;14.73;;;3.70;;
33987;SDS011;37428;53.580;-1.666;2023-12-22T10:26:18;8.20;;;1.27;;
33987;SDS011;37428;53.580;-1.666;2023-12-22T10:29:21;10.40;;;1.48;;
33987;SDS011;37428;53.580;-1.666;2023-12-22T10:32:25;11.90;;;1.95;;
33987;SDS011;37428;53.580;-1.666;2023-12-22T10:35:28;9.75;;;1.90;;
33987;SDS011;37428;53.580;-1.666;2023-12-22T10:38:32;10.30;;;2.35;;
33987;SDS011;37428;53.580;-1.666;2023-12-22T10:41:35;11.60;;;1.85;;
33987;SDS011;37428;53.580;-1.666;2023-12-22T10:44:40;14.57;;;5.85;;
33987;SDS011;37428;53.580;-1.666;2023-12-22T10:47:44;11.07;;;1.52;;
33987;SDS011;37428;53.580;-1.666;2023-12-22T10:50:50;13.98;;;2.90;;
33987;SDS011;37428;53.580;-1.666;2023-12-22T10:53:53;11.85;;;2.50;;
33987;SDS011;37428;53.580;-1.666;2023-12-22T11:00:00;10.35;;;3.08;;
33987;SDS011;37428;53.580;-1.666;2023-12-22T11:03:06;17.50;;;2.58;;
33987;SDS011;37428;53.580;-1.666;2023-12-22T11:06:10;14.20;;;2.33;;
33987;SDS011;37428;53.580;-1.666;2023-12-22T11:09:13;11.75;;;3.17;;
33987;SDS011;37428;53.580;-1.666;2023-12-22T11:12:18;17.92;;;5.10;;
33987;SDS011;37428;53.580;-1.666;2023-12-22T11:15:21;7.40;;;1.67;;
33987;SDS011;37428;53.580;-1.666;2023-12-22T11:18:25;11.82;;;2.45;;
33987;SDS011;37428;53.580;-1.666;2023-12-22T11:21:28;14.13;;;2.67;;
33987;SDS011;37428;53.580;-1.666;2023-12-22T11:24:33;14.70;;;2.08;;
33987;SDS011;37428;53.580;-1.666;2023-12-22T11:27:37;17.25;;;4.15;;
33987;SDS011;37428;53.580;-1.666;2023-12-22T11:30:39;10.63;;;1.63;;
33987;SDS011;37428;53.580;-1.666;2023-12-22T11:33:44;9.25;;;1.58;;
33987;SDS011;37428;53.580;-1.666;2023-12-22T11:36:47;6.68;;;1.30;;
33987;SDS011;37428;53.580;-1.666;2023-12-22T11:39:51;9.60;;;0.90;;
33987;SDS011;37428;53.580;-1.666;2023-12-22T11:42:54;8.73;;;1.63;;
33987;SDS011;37428;53.580;-1.666;2023-12-22T11:46:00;19.90;;;17.15;;
33987;SDS011;37428;53.580;-1.666;2023-12-22T11:49:04;13.68;;;4.75;;
33987;SDS011;37428;53.580;-1.666;2023-12-22T11:52:11;12.43;;;1.98;;
33987;SDS011;37428;53.580;-1.666;2023-12-22T11:58:58;13.32;;;2.20;;
33987;SDS011;37428;53.580;-1.666;2023-12-22T12:02:01;8.95;;;1.92;;
33987;SDS011;37428;53.580;-1.666;2023-12-22T12:05:06;9.30;;;2.80;;
33987;SDS011;37428;53.580;-1.666;2023-12-22T12:08:09;11.18;;;1.95;;
33987;SDS011;37428;53.580;-1.666;2023-12-22T12:11:11;6.20;;;1.13;;
33987;SDS011;37428;53.580;-1.666;2023-12-22T12:14:14;9.82;;;1.92;;
33987;SDS011;37428;53.580;-1.666;2023-12-22T12:17:17;9.50;;;0.95;;
33987;SDS011;37428;53.580;-1.666;2023-12-22T12:20:21;13.50;;;2.25;;
33987;SDS011;37428;53.580;-1.666;2023-12-22T12:23:24;10.70;;;1.77;;
33987;SDS011;37428;53.580;-1.666;2023-12-22T12:26:26;13.55;;;2.38;;
33987;SDS011;37428;53.580;-1.666;2023-12-22T12:32:32;10.75;;;1.65;;
33987;SDS011;37428;53.580;-1.666;2023-12-22T12:35:36;14.43;;;1.98;;
33987;SDS011;37428;53.580;-1.666;2023-12-22T12:38:45;7.75;;;5.50;;
33987;SDS011;37428;53.580;-1.666;2023-12-22T12:41:54;17.00;;;3.17;;
33987;SDS011;37428;53.580;-1.666;2023-12-22T12:44:57;11.13;;;1.75;;
33987;SDS011;37428;53.580;-1.666;2023-12-22T12:48:00;11.15;;;2.10;;
33987;SDS011;37428;53.580;-1.666;2023-12-22T12:51:05;25.05;;;9.63;;
33987;SDS011;37428;53.580;-1.666;2023-12-22T12:54:08;15.57;;;8.45;;
33987;SDS011;37428;53.580;-1.666;2023-12-22T12:57:14;8.95;;;2.47;;
33987;SDS011;37428;53.580;-1.666;2023-12-22T13:00:17;16.38;;;2.38;;
33987;SDS011;37428;53.580;-1.666;2023-12-22T13:03:26;10.68;;;2.30;;
33987;SDS011;37428;53.580;-1.666;2023-12-22T13:06:29;15.73;;;1.85;;
33987;SDS011;37428;53.580;-1.666;2023-12-22T13:09:32;9.82;;;1.85;;
33987;SDS011;37428;53.580;-1.666;2023-12-22T13:12:35;10.55;;;1.60;;
33987;SDS011;37428;53.580;-1.666;2023-12-22T13:15:39;12.60;;;5.22;;
33987;SDS011;37428;53.580;-1.666;2023-12-22T13:18:42;15.57;;;4.35;;
33987;SDS011;37428;53.580;-1.666;2023-12-22T13:21:46;14.23;;;2.10;;
33987;SDS011;37428;53.580;-1.666;2023-12-22T13:24:55;12.30;;;2.63;;
33987;SDS011;37428;53.580;-1.666;2023-12-22T13:27:58;10.98;;;2.13;;
33987;SDS011;37428;53.580;-1.666;2023-12-22T13:31:00;9.43;;;1.48;;
33987;SDS011;37428;53.580;-1.666;2023-12-22T13:34:02;13.73;;;2.13;;
33987;SDS011;37428;53.580;-1.666;2023-12-22T13:37:06;30.17;;;2.33;;
33987;SDS011;37428;53.580;-1.666;2023-12-22T13:40:08;9.32;;;2.25;;
33987;SDS011;37428;53.580;-1.666;2023-12-22T13:43:12;9.10;;;1.90;;
33987;SDS011;37428;53.580;-1.666;2023-12-22T13:46:14;14.20;;;2.20;;
33987;SDS011;37428;53.580;-1.666;2023-12-22T13:49:16;8.55;;;1.73;;
33987;SDS011;37428;53.580;-1.666;2023-12-22T13:52:27;10.68;;;3.10;;
33987;SDS011;37428;53.580;-1.666;2023-12-22T13:55:32;14.40;;;3.03;;
33987;SDS011;37428;53.580;-1.666;2023-12-22T13:58:43;5.72;;;1.38;;
33987;SDS011;37428;53.580;-1.666;2023-12-22T14:01:46;10.45;;;1.80;;
33987;SDS011;37428;53.580;-1.666;2023-12-22T14:04:48;10.95;;;2.20;;
33987;SDS011;37428;53.580;-1.666;2023-12-22T14:07:53;11.00;;;2.70;;
33987;SDS011;37428;53.580;-1.666;2023-12-22T14:10:55;5.20;;;2.03;;
33987;SDS011;37428;53.580;-1.666;2023-12-22T14:13:57;6.38;;;1.42;;
33987;SDS011;37428;53.580;-1.666;2023-12-22T14:16:59;8.32;;;0.93;;
33987;SDS011;37428;53.580;-1.666;2023-12-22T14:20:01;9.02;;;2.42;;
33987;SDS011;37428;53.580;-1.666;2023-12-22T14:23:06;6.68;;;1.80;;
33987;SDS011;37428;53.580;-1.666;2023-12-22T14:26:12;9.43;;;2.30;;
33987;SDS011;37428;53.580;-1.666;2023-12-22T14:29:14;9.23;;;2.17;;
33987;SDS011;37428;53.580;-1.666;2023-12-22T14:32:16;9.80;;;1.80;;
33987;SDS011;37428;53.580;-1.666;2023-12-22T14:35:19;6.97;;;1.08;;
33987;SDS011;37428;53.580;-1.666;2023-12-22T14:38:22;4.65;;;0.88;;
33987;SDS011;37428;53.580;-1.666;2023-12-22T14:41:25;10.82;;;2.20;;
33987;SDS011;37428;53.580;-1.666;2023-12-22T14:44:27;9.18;;;1.83;;
33987;SDS011;37428;53.580;-1.666;2023-12-22T14:47:29;9.48;;;1.85;;
33987;SDS011;37428;53.580;-1.666;2023-12-22T14:50:31;14.90;;;1.75;;
33987;SDS011;37428;53.580;-1.666;2023-12-22T14:53:35;9.00;;;0.95;;
33987;SDS011;37428;53.580;-1.666;2023-12-22T14:56:38;7.75;;;1.15;;
33987;SDS011;37428;53.580;-1.666;2023-12-22T14:59:43;11.18;;;1.42;;
33987;SDS011;37428;53.580;-1.666;2023-12-22T15:02:46;5.63;;;1.90;;
33987;SDS011;37428;53.580;-1.666;2023-12-22T15:05:48;10.77;;;2.65;;
33987;SDS011;37428;53.580;-1.666;2023-12-22T15:08:51;7.55;;;1.67;;
33987;SDS011;37428;53.580;-1.666;2023-12-22T15:11:54;9.45;;;1.38;;
33987;SDS011;37428;53.580;-1.666;2023-12-22T15:14:56;6.10;;;3.15;;
33987;SDS011;37428;53.580;-1.666;2023-12-22T15:21:00;9.23;;;1.70;;
33987;SDS011;37428;53.580;-1.666;2023-12-22T15:24:04;9.70;;;1.45;;
33987;SDS011;37428;53.580;-1.666;2023-12-22T15:27:06;9.40;;;1.60;;
33987;SDS011;37428;53.580;-1.666;2023-12-22T15:30:09;4.32;;;2.17;;
33987;SDS011;37428;53.580;-1.666;2023-12-22T15:33:11;10.23;;;3.90;;
33987;SDS011;37428;53.580;-1.666;2023-12-22T15:36:16;12.27;;;2.53;;
33987;SDS011;37428;53.580;-1.666;2023-12-22T15:39:20;14.60;;;2.13;;
33987;SDS011;37428;53.580;-1.666;2023-12-22T15:42:22;18.45;;;2.40;;
33987;SDS011;37428;53.580;-1.666;2023-12-22T15:45:25;9.13;;;1.90;;
33987;SDS011;37428;53.580;-1.666;2023-12-22T15:48:27;6.32;;;1.23;;
33987;SDS011;37428;53.580;-1.666;2023-12-22T15:51:29;8.15;;;1.38;;
33987;SDS011;37428;53.580;-1.666;2023-12-22T15:54:33;7.25;;;2.67;;
33987;SDS011;37428;53.580;-1.666;2023-12-22T15:57:36;10.88;;;1.83;;
33987;SDS011;37428;53.580;-1.666;2023-12-22T16:00:41;18.52;;;2.05;;
33987;SDS011;37428;53.580;-1.666;2023-12-22T16:03:43;6.18;;;1.35;;
33987;SDS011;37428;53.580;-1.666;2023-12-22T16:06:47;16.83;;;3.60;;
33987;SDS011;37428;53.580;-1.666;2023-12-22T16:09:51;14.48;;;1.63;;
33987;SDS011;37428;53.580;-1.666;2023-12-22T16:12:53;14.13;;;1.80;;
33987;SDS011;37428;53.580;-1.666;2023-12-22T16:15:56;9.20;;;1.48;;
33987;SDS011;37428;53.580;-1.666;2023-12-22T16:18:58;8.82;;;1.15;;
33987;SDS011;37428;53.580;-1.666;2023-12-22T16:25:04;12.20;;;1.77;;
33987;SDS011;37428;53.580;-1.666;2023-12-22T16:28:08;5.93;;;1.60;;
33987;SDS011;37428;53.580;-1.666;2023-12-22T16:31:11;9.75;;;3.65;;
33987;SDS011;37428;53.580;-1.666;2023-12-22T16:34:14;9.50;;;1.30;;
33987;SDS011;37428;53.580;-1.666;2023-12-22T16:37:16;12.43;;;1.40;;
33987;SDS011;37428;53.580;-1.666;2023-12-22T16:40:20;6.30;;;1.13;;
33987;SDS011;37428;53.580;-1.666;2023-12-22T16:43:22;8.70;;;1.88;;
33987;SDS011;37428;53.580;-1.666;2023-12-22T16:46:25;14.80;;;2.05;;
33987;SDS011;37428;53.580;-1.666;2023-12-22T16:49:27;6.20;;;0.95;;
33987;SDS011;37428;53.580;-1.666;2023-12-22T16:52:29;9.80;;;1.55;;
33987;SDS011;37428;53.580;-1.666;2023-12-22T16:55:32;6.50;;;1.65;;
33987;SDS011;37428;53.580;-1.666;2023-12-22T16:58:35;4.22;;;1.00;;
33987;SDS011;37428;53.580;-1.666;2023-12-22T17:01:38;9.75;;;1.75;;
33987;SDS011;37428;53.580;-1.666;2023-12-22T17:04:40;13.02;;;1.40;;
33987;SDS011;37428;53.580;-1.666;2023-12-22T17:07:42;9.05;;;1.40;;
33987;SDS011;37428;53.580;-1.666;2023-12-22T17:13:49;6.95;;;1.40;;
33987;SDS011;37428;53.580;-1.666;2023-12-22T17:16:51;4.78;;;1.75;;
33987;SDS011;37428;53.580;-1.666;2023-12-22T17:19:54;8.52;;;2.05;;
33987;SDS011;37428;53.580;-1.666;2023-12-22T17:22:56;7.68;;;1.88;;
33987;SDS011;37428;53.580;-1.666;2023-12-22T17:26:00;6.35;;;2.00;;
33987;SDS011;37428;53.580;-1.666;2023-12-22T17:29:02;14.05;;;1.58;;
33987;SDS011;37428;53.580;-1.666;2023-12-22T17:32:04;4.45;;;1.00;;
33987;SDS011;37428;53.580;-1.666;2023-12-22T17:35:08;7.80;;;2.10;;
33987;SDS011;37428;53.580;-1.666;2023-12-22T17:38:10;7.10;;;1.30;;
33987;SDS011;37428;53.580;-1.666;2023-12-22T17:41:14;9.02;;;2.20;;
33987;SDS011;37428;53.580;-1.666;2023-12-22T17:44:16;9.05;;;2.15;;
33987;SDS011;37428;53.580;-1.666;2023-12-22T17:47:18;9.50;;;1.55;;
33987;SDS011;37428;53.580;-1.666;2023-12-22T17:50:20;13.50;;;3.75;;
33987;SDS011;37428;53.580;-1.666;2023-12-22T17:53:22;11.38;;;2.50;;
33987;SDS011;37428;53.580;-1.666;2023-12-22T17:56:27;12.07;;;1.77;;
33987;SDS011;37428;53.580;-1.666;2023-12-22T17:59:30;8.10;;;1.20;;
33987;SDS011;37428;53.580;-1.666;2023-12-22T18:02:32;9.75;;;2.03;;
33987;SDS011;37428;53.580;-1.666;2023-12-22T18:05:34;8.32;;;1.85;;
33987;SDS011;37428;53.580;-1.666;2023-12-22T18:08:36;10.13;;;1.60;;
33987;SDS011;37428;53.580;-1.666;2023-12-22T18:11:41;8.55;;;1.92;;
33987;SDS011;37428;53.580;-1.666;2023-12-22T18:14:43;7.00;;;1.23;;
33987;SDS011;37428;53.580;-1.666;2023-12-22T18:17:46;3.58;;;1.42;;
33987;SDS011;37428;53.580;-1.666;2023-12-22T18:20:49;8.65;;;1.98;;
33987;SDS011;37428;53.580;-1.666;2023-12-22T18:23:51;9.75;;;1.20;;
33987;SDS011;37428;53.580;-1.666;2023-12-22T18:26:55;5.72;;;1.25;;
33987;SDS011;37428;53.580;-1.666;2023-12-22T18:29:57;7.55;;;1.40;;
33987;SDS011;37428;53.580;-1.666;2023-12-22T18:32:59;7.82;;;0.88;;